createdAt,value
2019-03-26T00:02:36.441Z,60.39
2019-03-26T00:05:24.630Z,61.08
2019-03-26T00:08:13.140Z,60.75
2019-03-26T00:11:01.744Z,61.42
2019-03-26T00:13:50.316Z,59.54
2019-03-26T00:16:38.467Z,60.80
2019-03-26T00:19:26.755Z,60.54
2019-03-26T00:22:15.218Z,61.84
2019-03-26T00:25:03.393Z,62.22
2019-03-26T00:27:51.628Z,62.31
2019-03-26T00:30:40.150Z,59.89
2019-03-26T00:33:36.196Z,60.11
2019-03-26T00:36:18.076Z,58.99
2019-03-26T00:39:07.517Z,59.02
2019-03-26T00:41:56.000Z,59.19
2019-03-26T00:44:44.180Z,60.16
2019-03-26T00:47:32.498Z,60.33
2019-03-26T00:50:20.344Z,60.13
2019-03-26T00:53:08.521Z,60.30
2019-03-26T00:55:56.731Z,60.31
2019-03-26T00:58:45.116Z,59.62
2019-03-26T01:01:33.380Z,59.91
2019-03-26T01:04:32.099Z,59.91
2019-03-26T01:07:12.362Z,59.92
2019-03-26T01:10:00.626Z,59.81
2019-03-26T01:12:49.052Z,59.88
2019-03-26T01:15:37.261Z,59.39
2019-03-26T01:18:25.530Z,59.39
2019-03-26T01:21:14.387Z,59.31
2019-03-26T01:24:03.131Z,59.53
2019-03-26T01:26:51.650Z,58.61
2019-03-26T01:29:39.968Z,58.87
2019-03-26T01:32:28.575Z,59.43
2019-03-26T01:35:16.483Z,59.24
2019-03-26T01:38:04.878Z,59.72
2019-03-26T01:40:53.096Z,60.41
2019-03-26T01:43:41.391Z,60.92
2019-03-26T01:46:29.647Z,60.00
2019-03-26T01:49:18.151Z,59.80
2019-03-26T01:52:06.292Z,59.77
2019-03-26T01:54:54.979Z,60.27
2019-03-26T01:57:43.293Z,60.33
2019-03-26T02:00:31.794Z,60.29
2019-03-26T02:03:20.447Z,59.78
2019-03-26T02:06:08.915Z,60.21
2019-03-26T02:08:57.105Z,60.29
2019-03-26T02:11:45.408Z,60.70
2019-03-26T02:14:34.339Z,60.51
2019-03-26T02:17:23.652Z,60.44
2019-03-26T02:20:12.191Z,60.56
2019-03-26T02:23:00.408Z,59.91
2019-03-26T02:25:48.914Z,60.30
2019-03-26T02:28:37.572Z,60.40
2019-03-26T02:31:26.060Z,59.98
2019-03-26T02:34:14.150Z,59.70
2019-03-26T02:37:02.696Z,58.52
2019-03-26T02:39:51.633Z,58.87
2019-03-26T02:42:39.961Z,59.08
2019-03-26T02:45:28.108Z,58.30
2019-03-26T02:48:16.437Z,59.43
2019-03-26T02:51:04.966Z,59.42
2019-03-26T02:53:52.937Z,59.36
2019-03-26T02:56:41.082Z,59.00
2019-03-26T02:59:29.364Z,58.12
2019-03-26T03:02:17.712Z,58.27
2019-03-26T03:05:06.191Z,59.02
2019-03-26T03:07:54.176Z,59.21
2019-03-26T03:10:42.407Z,58.78
2019-03-26T03:13:30.553Z,59.13
2019-03-26T03:16:19.226Z,59.07
2019-03-26T03:19:07.248Z,59.29
2019-03-26T03:21:55.382Z,59.58
2019-03-26T03:24:43.395Z,59.03
2019-03-26T03:27:31.899Z,59.04
2019-03-26T03:30:22.359Z,58.84
2019-03-26T03:33:11.213Z,59.60
2019-03-26T03:35:59.358Z,59.64
2019-03-26T03:38:47.598Z,59.54
2019-03-26T03:41:36.122Z,59.17
2019-03-26T03:44:25.060Z,59.08
2019-03-26T03:47:14.834Z,58.61
2019-03-26T03:50:03.480Z,58.74
2019-03-26T03:52:51.819Z,58.64
2019-03-26T03:55:40.276Z,58.67
2019-03-26T03:58:30.421Z,58.41
2019-03-26T04:01:18.876Z,58.85
2019-03-26T04:04:06.952Z,58.41
2019-03-26T04:06:54.767Z,58.48
2019-03-26T04:09:43.529Z,59.01
2019-03-26T04:12:31.780Z,58.80
2019-03-26T04:15:20.176Z,58.72
2019-03-26T04:18:08.428Z,58.76
2019-03-26T04:20:57.642Z,58.18
2019-03-26T04:23:46.050Z,58.46
2019-03-26T04:26:34.846Z,59.98
2019-03-26T04:29:23.088Z,58.12
2019-03-26T04:32:11.971Z,58.25
2019-03-26T04:34:59.910Z,59.11
2019-03-26T04:37:48.330Z,57.62
2019-03-26T04:40:36.627Z,57.83
2019-03-26T04:43:25.307Z,57.89
2019-03-26T04:46:13.566Z,56.87
2019-03-26T04:49:01.459Z,57.13
2019-03-26T04:51:50.163Z,57.73
2019-03-26T04:54:38.629Z,57.76
2019-03-26T04:57:27.354Z,58.11
2019-03-26T05:00:15.440Z,57.74
2019-03-26T05:03:03.876Z,57.94
2019-03-26T05:05:52.489Z,57.65
2019-03-26T05:08:41.199Z,56.85
2019-03-26T05:11:32.799Z,56.89
2019-03-26T05:14:21.190Z,57.16
2019-03-26T05:17:09.586Z,56.66
2019-03-26T05:19:58.212Z,57.05
2019-03-26T05:22:46.386Z,57.50
2019-03-26T05:25:35.182Z,57.67
2019-03-26T05:28:23.635Z,57.46
2019-03-26T05:31:11.808Z,57.72
2019-03-26T05:34:00.106Z,57.23
2019-03-26T05:36:51.465Z,57.27
2019-03-26T05:39:38.530Z,57.75
2019-03-26T05:42:26.977Z,57.62
2019-03-26T05:45:14.975Z,56.95
2019-03-26T05:48:03.699Z,57.62
2019-03-26T05:50:52.259Z,57.65
2019-03-26T05:53:40.162Z,57.49
2019-03-26T05:56:30.568Z,56.14
2019-03-26T05:59:18.467Z,55.76
2019-03-26T06:02:14.315Z,56.08
2019-03-26T06:04:57.203Z,56.37
2019-03-26T06:07:45.311Z,56.25
2019-03-26T06:10:34.018Z,56.80
2019-03-26T06:13:22.865Z,56.88
2019-03-26T06:16:11.564Z,57.17
2019-03-26T06:19:00.032Z,57.08
2019-03-26T06:21:48.559Z,56.63
2019-03-26T06:24:37.613Z,57.04
2019-03-26T06:27:26.168Z,56.26
2019-03-26T06:30:14.925Z,55.63
2019-03-26T06:33:03.269Z,56.06
2019-03-26T06:35:51.744Z,56.18
2019-03-26T06:38:40.514Z,56.30
2019-03-26T06:41:29.037Z,56.68
2019-03-26T06:44:17.375Z,56.61
2019-03-26T06:47:05.334Z,56.37
2019-03-26T06:49:53.639Z,56.30
2019-03-26T06:52:41.984Z,56.27
2019-03-26T06:55:30.221Z,56.56
2019-03-26T06:58:18.103Z,56.03
2019-03-26T07:01:06.460Z,56.08
2019-03-26T07:03:54.557Z,55.54
2019-03-26T07:06:43.304Z,54.97
2019-03-26T07:09:31.217Z,55.29
2019-03-26T07:12:19.365Z,54.20
2019-03-26T07:15:09.334Z,53.81
2019-03-26T07:17:57.639Z,53.50
2019-03-26T07:20:45.860Z,53.54
2019-03-26T07:23:34.031Z,52.84
2019-03-26T07:26:22.344Z,52.62
2019-03-26T07:29:10.661Z,53.57
2019-03-26T07:31:59.436Z,53.33
2019-03-26T07:34:47.981Z,53.79
2019-03-26T07:37:45.046Z,53.39
2019-03-26T07:40:26.343Z,52.48
2019-03-26T07:43:14.587Z,51.75
2019-03-26T07:46:03.000Z,51.02
2019-03-26T07:48:51.216Z,50.72
2019-03-26T07:51:39.653Z,50.44
2019-03-26T07:54:27.586Z,51.13
2019-03-26T07:57:16.089Z,50.90
2019-03-26T08:00:05.085Z,50.88
2019-03-26T08:02:53.717Z,50.03
2019-03-26T08:05:42.053Z,50.74
2019-03-26T08:08:29.921Z,51.01
2019-03-26T08:11:18.480Z,50.55
2019-03-26T08:14:06.875Z,50.43
2019-03-26T08:16:55.034Z,49.77
2019-03-26T08:19:43.272Z,48.71
2019-03-26T08:22:31.557Z,49.75
2019-03-26T08:25:19.860Z,48.62
2019-03-26T08:28:08.748Z,48.41
2019-03-26T08:30:56.949Z,48.09
2019-03-26T08:33:45.328Z,46.47
2019-03-26T08:36:34.173Z,46.15
2019-03-26T08:39:22.497Z,44.78
2019-03-26T08:42:11.041Z,44.22
2019-03-26T08:44:59.080Z,43.85
2019-03-26T08:47:47.136Z,43.55
2019-03-26T08:50:35.018Z,44.26
2019-03-26T08:53:22.826Z,45.74
2019-03-26T08:56:11.149Z,44.23
2019-03-26T08:58:59.430Z,42.40
2019-03-26T09:01:47.751Z,41.90
2019-03-26T09:04:35.709Z,42.63
2019-03-26T09:07:24.001Z,43.09
2019-03-26T09:10:13.372Z,43.39
2019-03-26T09:13:01.438Z,44.32
2019-03-26T09:15:49.388Z,44.48
2019-03-26T09:18:37.488Z,44.83
2019-03-26T09:21:25.378Z,43.24
2019-03-26T09:24:13.285Z,43.78
2019-03-26T09:27:01.513Z,43.35
2019-03-26T09:29:49.449Z,42.30
2019-03-26T09:32:38.127Z,41.68
2019-03-26T09:35:26.605Z,42.63
2019-03-26T09:38:14.931Z,42.16
2019-03-26T09:41:02.923Z,41.99
2019-03-26T09:43:51.035Z,39.92
2019-03-26T09:46:38.956Z,41.89
2019-03-26T09:49:27.469Z,41.64
2019-03-26T09:52:15.559Z,41.58
2019-03-26T09:55:03.926Z,41.25
2019-03-26T09:57:51.861Z,42.13
2019-03-26T10:00:40.631Z,40.19
2019-03-26T10:03:28.658Z,41.46
2019-03-26T10:06:23.267Z,41.60
2019-03-26T10:09:07.600Z,41.60
2019-03-26T10:11:56.134Z,42.06
2019-03-26T10:14:43.955Z,42.05
2019-03-26T10:17:31.640Z,43.09
2019-03-26T10:20:19.761Z,42.28
2019-03-26T10:23:07.949Z,42.93
2019-03-26T10:25:56.330Z,42.92
2019-03-26T10:28:44.750Z,41.65
2019-03-26T10:31:32.936Z,40.75
2019-03-26T10:34:20.837Z,39.33
2019-03-26T10:37:09.233Z,37.98
2019-03-26T10:39:57.394Z,37.25
2019-03-26T10:42:45.607Z,36.98
2019-03-26T10:45:33.579Z,37.54
2019-03-26T10:48:21.923Z,36.84
2019-03-26T10:51:10.281Z,36.00
2019-03-26T10:53:58.231Z,36.52
2019-03-26T10:56:46.364Z,37.04
2019-03-26T10:59:34.600Z,37.70
2019-03-26T11:02:23.026Z,38.48
2019-03-26T11:05:11.329Z,38.69
2019-03-26T11:07:59.311Z,38.55
2019-03-26T11:10:47.704Z,38.37
2019-03-26T11:13:35.996Z,35.24
2019-03-26T11:16:24.124Z,34.99
2019-03-26T11:19:12.846Z,35.92
2019-03-26T11:22:00.906Z,35.78
2019-03-26T11:24:48.716Z,34.82
2019-03-26T11:27:36.826Z,36.24
2019-03-26T11:30:24.436Z,36.23
2019-03-26T11:33:12.411Z,36.68
2019-03-26T11:36:00.344Z,37.37
2019-03-26T11:38:48.838Z,37.45
2019-03-26T11:41:36.736Z,37.64
2019-03-26T11:44:24.912Z,37.61
2019-03-26T11:47:13.008Z,37.72
2019-03-26T11:50:04.602Z,37.37
2019-03-26T11:52:51.646Z,37.07
2019-03-26T11:55:39.862Z,36.81
2019-03-26T11:58:30.927Z,35.91
2019-03-26T12:01:17.413Z,36.37
2019-03-26T12:04:06.260Z,36.31
2019-03-26T12:06:54.661Z,36.00
2019-03-26T12:09:46.465Z,36.76
2019-03-26T12:12:32.474Z,36.70
2019-03-26T12:15:20.759Z,36.57
2019-03-26T12:18:09.350Z,35.61
2019-03-26T12:20:57.509Z,35.42
2019-03-26T12:23:45.737Z,35.51
2019-03-26T12:26:33.810Z,35.68
2019-03-26T12:29:21.976Z,35.86
2019-03-26T12:32:10.546Z,36.78
2019-03-26T12:34:58.438Z,36.00
2019-03-26T12:37:46.577Z,35.53
2019-03-26T12:40:34.524Z,35.52
2019-03-26T12:43:22.592Z,35.57
2019-03-26T12:46:10.638Z,33.17
2019-03-26T12:48:58.616Z,34.00
2019-03-26T12:51:46.653Z,33.73
2019-03-26T12:54:34.939Z,33.73
2019-03-26T12:57:22.840Z,34.91
2019-03-26T13:00:11.152Z,35.13
2019-03-26T13:02:58.855Z,34.74
2019-03-26T13:05:47.748Z,34.93
2019-03-26T13:08:35.690Z,34.51
2019-03-26T13:11:23.889Z,34.58
2019-03-26T13:14:11.837Z,33.34
2019-03-26T13:17:00.070Z,33.64
2019-03-26T13:19:48.014Z,33.12
2019-03-26T13:22:35.741Z,33.70
2019-03-26T13:25:23.966Z,32.02
2019-03-26T13:28:12.446Z,32.19
2019-03-26T13:31:00.342Z,32.36
2019-03-26T13:33:48.409Z,32.76
2019-03-26T13:36:36.994Z,33.83
2019-03-26T13:39:25.258Z,33.68
2019-03-26T13:42:13.228Z,34.58
2019-03-26T13:45:01.535Z,34.82
2019-03-26T13:47:49.840Z,34.96
2019-03-26T13:50:38.161Z,32.83
2019-03-26T13:53:26.428Z,33.84
2019-03-26T13:56:14.172Z,34.26
2019-03-26T13:59:02.119Z,33.84
2019-03-26T14:01:50.233Z,34.84
2019-03-26T14:04:38.399Z,34.57
2019-03-26T14:07:26.375Z,34.53
2019-03-26T14:10:14.541Z,34.93
2019-03-26T14:13:02.742Z,34.17
2019-03-26T14:15:51.312Z,33.17
2019-03-26T14:18:39.552Z,32.54
2019-03-26T14:21:27.475Z,32.03
2019-03-26T14:24:15.894Z,32.23
2019-03-26T14:27:04.616Z,32.18
2019-03-26T14:29:52.404Z,32.63
2019-03-26T14:32:40.120Z,33.03
2019-03-26T14:35:28.054Z,32.93
2019-03-26T14:38:16.142Z,33.26
2019-03-26T14:41:04.672Z,34.23
2019-03-26T14:43:53.120Z,33.44
2019-03-26T14:46:41.139Z,32.71
2019-03-26T14:49:29.053Z,32.64
2019-03-26T14:52:17.120Z,33.05
2019-03-26T14:55:05.632Z,33.41
2019-03-26T14:57:53.777Z,33.27
2019-03-26T15:00:41.716Z,32.90
2019-03-26T15:03:30.165Z,32.88
2019-03-26T15:06:18.130Z,32.93
2019-03-26T15:09:08.745Z,32.81
2019-03-26T15:11:57.021Z,33.18
2019-03-26T15:14:45.298Z,33.60
2019-03-26T15:17:33.490Z,34.06
2019-03-26T15:20:21.515Z,33.70
2019-03-26T15:23:09.745Z,33.74
2019-03-26T15:25:57.673Z,33.55
2019-03-26T15:28:45.924Z,33.97
2019-03-26T15:31:34.022Z,33.69
2019-03-26T15:34:35.360Z,33.85
2019-03-26T15:37:11.972Z,33.30
2019-03-26T15:39:59.868Z,32.46
2019-03-26T15:42:48.017Z,32.99
2019-03-26T15:45:36.190Z,32.90
2019-03-26T15:48:24.184Z,32.66
2019-03-26T15:51:12.180Z,32.70
2019-03-26T15:54:00.521Z,32.71
2019-03-26T15:56:48.480Z,32.94
2019-03-26T15:59:37.081Z,32.96
2019-03-26T16:02:24.988Z,32.66
2019-03-26T16:05:14.502Z,32.87
2019-03-26T16:08:02.787Z,32.87
2019-03-26T16:10:50.756Z,33.17
2019-03-26T16:13:38.898Z,33.50
2019-03-26T16:16:26.553Z,33.04
2019-03-26T16:19:14.113Z,33.59
2019-03-26T16:22:02.213Z,34.08
2019-03-26T16:24:53.259Z,34.40
2019-03-26T16:27:40.116Z,34.33
2019-03-26T16:30:30.609Z,34.49
2019-03-26T16:33:18.790Z,34.55
2019-03-26T16:36:07.416Z,34.98
2019-03-26T16:38:56.104Z,35.29
2019-03-26T16:41:49.260Z,35.71
2019-03-26T16:44:33.952Z,34.87
2019-03-26T16:47:22.263Z,34.79
2019-03-26T16:50:10.801Z,34.39
2019-03-26T16:52:58.693Z,34.09
2019-03-26T16:55:46.910Z,34.11
2019-03-26T16:58:35.223Z,34.25
2019-03-26T17:01:23.031Z,34.17
2019-03-26T17:04:11.014Z,34.39
2019-03-26T17:06:59.666Z,34.58
2019-03-26T17:09:47.940Z,34.43
2019-03-26T17:12:35.864Z,35.04
2019-03-26T17:15:24.275Z,34.97
2019-03-26T17:18:12.967Z,35.00
2019-03-26T17:21:01.097Z,34.95
2019-03-26T17:23:49.017Z,35.46
2019-03-26T17:26:37.341Z,35.50
2019-03-26T17:29:25.809Z,35.41
2019-03-26T17:32:14.517Z,35.87
2019-03-26T17:35:03.051Z,35.46
2019-03-26T17:37:59.397Z,36.04
2019-03-26T17:40:41.164Z,36.47
2019-03-26T17:43:29.289Z,35.86
2019-03-26T17:46:17.455Z,36.59
2019-03-26T17:49:05.864Z,36.03
2019-03-26T17:51:54.001Z,37.45
2019-03-26T17:54:41.911Z,36.83
2019-03-26T17:57:29.968Z,36.80
2019-03-26T18:00:21.636Z,36.98
2019-03-26T18:03:09.540Z,37.08
2019-03-26T18:05:57.498Z,37.38
2019-03-26T18:08:45.815Z,37.66
2019-03-26T18:11:33.517Z,37.82
2019-03-26T18:14:21.559Z,38.09
2019-03-26T18:17:09.495Z,37.80
2019-03-26T18:19:57.414Z,38.24
2019-03-26T18:22:45.050Z,38.50
2019-03-26T18:25:33.139Z,38.46
2019-03-26T18:28:21.653Z,38.51
2019-03-26T18:31:09.679Z,38.34
2019-03-26T18:33:57.499Z,38.28
2019-03-26T18:36:45.688Z,38.27
2019-03-26T18:39:33.887Z,38.20
2019-03-26T18:42:21.995Z,38.28
2019-03-26T18:45:09.591Z,38.28
2019-03-26T18:47:57.628Z,38.30
2019-03-26T18:50:45.604Z,38.48
2019-03-26T18:53:33.877Z,38.12
2019-03-26T18:56:22.652Z,38.59
2019-03-26T18:59:11.131Z,38.29
2019-03-26T19:01:58.887Z,38.61
2019-03-26T19:04:47.713Z,38.38
2019-03-26T19:07:35.874Z,38.48
2019-03-26T19:10:29.482Z,38.52
2019-03-26T19:13:19.854Z,38.90
2019-03-26T19:16:07.285Z,39.15
2019-03-26T19:18:56.300Z,38.80
2019-03-26T19:21:44.527Z,39.04
2019-03-26T19:24:32.672Z,39.40
2019-03-26T19:27:20.758Z,39.55
2019-03-26T19:30:09.291Z,39.28
2019-03-26T19:32:57.970Z,39.27
2019-03-26T19:35:46.086Z,39.02
2019-03-26T19:38:33.686Z,39.36
2019-03-26T19:41:22.221Z,39.73
2019-03-26T19:44:09.882Z,39.36
2019-03-26T19:46:57.844Z,38.89
2019-03-26T19:49:45.710Z,38.89
2019-03-26T19:52:34.091Z,38.92
2019-03-26T19:55:22.106Z,38.85
2019-03-26T19:58:10.386Z,39.27
2019-03-26T20:00:58.110Z,39.37
2019-03-26T20:03:46.138Z,39.21
2019-03-26T20:06:34.086Z,39.95
2019-03-26T20:09:22.153Z,39.58
2019-03-26T20:12:10.240Z,39.51
2019-03-26T20:14:58.191Z,39.55
2019-03-26T20:17:48.708Z,39.20
2019-03-26T20:20:36.674Z,39.54
2019-03-26T20:23:24.297Z,39.68
2019-03-26T20:26:12.251Z,39.46
2019-03-26T20:29:00.402Z,39.81
2019-03-26T20:31:48.284Z,40.08
2019-03-26T20:34:36.055Z,39.82
2019-03-26T20:37:24.067Z,39.79
2019-03-26T20:40:13.793Z,40.10
2019-03-26T20:43:01.550Z,40.10
2019-03-26T20:45:49.991Z,39.79
2019-03-26T20:48:37.766Z,39.56
2019-03-26T20:51:25.974Z,39.68
2019-03-26T20:54:14.034Z,39.99
2019-03-26T20:57:01.684Z,40.28
2019-03-26T20:59:49.657Z,40.08
2019-03-26T21:02:37.701Z,40.09
2019-03-26T21:05:25.787Z,40.65
2019-03-26T21:08:14.231Z,40.70
2019-03-26T21:11:02.263Z,40.40
2019-03-26T21:13:51.230Z,40.33
2019-03-26T21:16:39.459Z,40.44
2019-03-26T21:19:28.080Z,40.75
2019-03-26T21:22:16.038Z,40.57
2019-03-26T21:25:04.465Z,40.96
2019-03-26T21:27:56.309Z,40.94
2019-03-26T21:30:44.525Z,41.24
2019-03-26T21:33:32.668Z,40.93
2019-03-26T21:36:20.896Z,40.87
2019-03-26T21:39:09.334Z,40.68
2019-03-26T21:41:57.305Z,40.87
2019-03-26T21:44:45.369Z,40.83
2019-03-26T21:47:33.794Z,41.10
2019-03-26T21:50:22.046Z,40.83
2019-03-26T21:53:10.231Z,40.79
2019-03-26T21:56:06.206Z,40.86
2019-03-26T21:58:48.631Z,40.93
2019-03-26T22:01:36.494Z,41.34
2019-03-26T22:04:24.536Z,41.67
2019-03-26T22:07:13.101Z,41.34
2019-03-26T22:10:01.154Z,41.30
2019-03-26T22:12:49.642Z,41.39
2019-03-26T22:15:37.766Z,41.56
2019-03-26T22:18:27.169Z,41.60
2019-03-26T22:21:15.485Z,42.41
2019-03-26T22:24:03.468Z,41.88
2019-03-26T22:26:51.206Z,41.70
2019-03-26T22:29:39.449Z,42.33
2019-03-26T22:32:27.346Z,43.06
2019-03-26T22:35:15.151Z,42.87
2019-03-26T22:38:03.126Z,41.98
2019-03-26T22:40:51.061Z,42.27
2019-03-26T22:43:39.283Z,42.70
2019-03-26T22:46:27.041Z,43.01
2019-03-26T22:49:14.786Z,42.69
2019-03-26T22:52:04.329Z,42.95
2019-03-26T22:54:52.873Z,42.79
2019-03-26T22:57:41.051Z,42.66
2019-03-26T23:00:34.274Z,43.38
2019-03-26T23:03:22.853Z,42.89
2019-03-26T23:06:10.968Z,43.18
2019-03-26T23:08:58.897Z,43.66
2019-03-26T23:11:46.981Z,43.54
2019-03-26T23:14:44.918Z,43.84
2019-03-26T23:17:24.930Z,44.03
2019-03-26T23:20:13.106Z,44.65
2019-03-26T23:23:01.194Z,44.57
2019-03-26T23:25:49.644Z,44.62
2019-03-26T23:28:37.591Z,44.79
2019-03-26T23:31:25.574Z,44.91
2019-03-26T23:34:13.607Z,45.12
2019-03-26T23:37:02.585Z,45.12
2019-03-26T23:39:52.529Z,45.00
2019-03-26T23:42:40.580Z,45.03
2019-03-26T23:45:28.761Z,45.18
2019-03-26T23:48:16.988Z,45.23
2019-03-26T23:51:05.179Z,45.79
2019-03-26T23:53:53.401Z,45.88
2019-03-26T23:56:41.013Z,46.41
2019-03-26T23:59:29.614Z,46.63
